Doris, Washington
Current Conditions -  °F | °C
As of 8:56 PM on Friday 24 Oct 2014 (Local Time) from K1YT Reporting Station
Light Rain Light Rain  
Wind Chill: 47°   Ceiling: 3100
Heat Index: 47°   Visibility: 10mi
Dew Point: 45°   Wind: 3mph
Humidity: 92%   Direction: 100°E
Pressure: 29.96"   Gusts: NA
Location:  46.8679°N, 120.008°W
Report Text: K1YT 250356Z AUTO 10003KT 10SM -RA OVC031 08/07 A2996 RMK AO2 SLPNO P0002 T00840071
Loading
Personal Weather Stations






























Interactive Weather Map New forecast layout! Learn more

10-Day Weather Forecast

Advertisements
Track Severe Weather on mobile